Time;durP1;ratioP1;P1;durP2;ratioP2;P2;SDS_P1;SDS_P2;PMS_P1;PMS_P2;Temp;Humidity;BMP_temperature;BMP_pressure;BME280_temperature;BME280_humidity;BME280_pressure;Samples;Min_cycle;Max_cycle;Signal;HPM_P1;HPM_P2
2023/09/28 00:01:35;;;;;;;;;;;;;;;;;;5013710;28;19905;-66
2023/09/28 00:04:01;;;;;;;;;;;;;;;;;;5015439;28;19906;-67
2023/09/28 00:06:27;;;;;;;;;;;;;;;;;;5015309;28;20318;-66
2023/09/28 00:08:53;;;;;;;;;;;;;;;;;;5013652;28;19942;-66
2023/09/28 00:11:19;;;;;;;;;;;;;;;;;;5014501;28;20040;-67
2023/09/28 00:13:44;;;;;;;;;;;;;;;;;;5013048;28;19992;-67
2023/09/28 00:16:10;;;;;;;;;;;;;;;;;;5014429;28;19905;-67
2023/09/28 00:18:36;;;;;;;;;;;;;;;;;;5014703;28;20412;-67
2023/09/28 00:21:02;;;;;;;;;;;;;;;;;;5012931;28;19970;-67
2023/09/28 00:23:28;;;;;;;;;;;;;;;;;;5013142;28;19940;-67
2023/09/28 00:25:54;;;;;;;;;;;;;;;;;;5014156;28;19942;-67
2023/09/28 00:28:20;;;;;;;;;;;;;;;;;;5014333;28;19905;-67
2023/09/28 00:30:48;;;;;;;;;;;;;;;;;;5013892;28;20360;-67
2023/09/28 00:33:14;;;;;;;;;;;;;;;;;;5014088;28;19913;-67
2023/09/28 00:35:40;;;;;;;;;;;;;;;;;;5014367;28;19909;-67
2023/09/28 00:38:07;;;;;;;;;;;;;;;;;;5014694;28;19927;-66
2023/09/28 00:40:32;;;;;;;;;;;;;;;;;;5013432;28;20334;-66
2023/09/28 00:42:58;;;;;;;;;;;;;;;;;;5014858;28;19912;-67
2023/09/28 00:45:24;;;;;;;;;;;;;;;;;;5013043;28;20460;-67
2023/09/28 00:47:50;;;;;;;;;;;;;;;;;;5012694;28;19954;-67
2023/09/28 00:50:16;;;;;;;;;;;;;;;;;;5013819;28;20050;-67
2023/09/28 00:52:42;;;;;;;;;;;;;;;;;;5014179;28;20260;-67
2023/09/28 00:55:08;;;;;;;;;;;;;;;;;;5012611;28;19964;-67
2023/09/28 00:57:34;;;;;;;;;;;;;;;;;;5013775;28;20315;-67
2023/09/28 01:00:01;;;;;;;;;;;;;;;;;;5013572;28;19994;-67
2023/09/28 01:02:26;;;;;;;;;;;;;;;;;;5013986;28;19912;-67
2023/09/28 01:04:52;;;;;;;;;;;;;;;;;;5012336;28;20368;-67
2023/09/28 01:07:18;;;;;;;;;;;;;;;;;;5013688;28;19912;-67
2023/09/28 01:09:44;;;;;;;;;;;;;;;;;;5013533;28;19909;-67
2023/09/28 01:12:12;;;;;;;;;;;;;;;;;;5013710;28;19952;-67
2023/09/28 01:14:38;;;;;;;;;;;;;;;;;;5013850;28;20256;-67
2023/09/28 01:17:04;;;;;;;;;;;;;;;;;;5012427;28;19944;-67
2023/09/28 01:19:30;;;;;;;;;;;;;;;;;;5013463;28;19954;-68
2023/09/28 01:21:56;;;;;;;;;;;;;;;;;;5013583;28;19938;-67
2023/09/28 01:24:22;;;;;;;;;;;;;;;;;;5013930;28;19938;-67
2023/09/28 01:26:48;;;;;;;;;;;;;;;;;;5013551;28;19939;-66
2023/09/28 01:29:14;;;;;;;;;;;;;;;;;;5012045;28;19959;-66
2023/09/28 01:31:40;;;;;;;;;;;;;;;;;;5013587;28;20331;-67
2023/09/28 01:34:06;;;;;;;;;;;;;;;;;;5013614;28;20360;-67
2023/09/28 01:36:32;;;;;;;;;;;;;;;;;;5013841;28;19938;-67
2023/09/28 01:38:58;;;;;;;;;;;;;;;;;;5013431;28;19943;-67
2023/09/28 01:41:24;;;;;;;;;;;;;;;;;;5015475;28;19941;-68
2023/09/28 01:43:50;;;;;;;;;;;;;;;;;;5017307;28;19938;-67
2023/09/28 01:46:16;;;;;;;;;;;;;;;;;;5017114;28;19936;-67
2023/09/28 01:48:42;;;;;;;;;;;;;;;;;;5016089;28;20487;-67
2023/09/28 01:51:08;;;;;;;;;;;;;;;;;;5017569;28;19945;-67
2023/09/28 01:53:34;;;;;;;;;;;;;;;;;;5018007;28;19935;-67
2023/09/28 01:56:02;;;;;;;;;;;;;;;;;;5018450;28;20040;-67
2023/09/28 01:58:28;;;;;;;;;;;;;;;;;;5020979;28;19937;-67
2023/09/28 02:00:53;;;;;;;;;;;;;;;;;;5019227;28;20038;-67
2023/09/28 02:03:21;;;;;;;;;;;;;;;;;;5020463;28;19983;-67
2023/09/28 02:05:47;;;;;;;;;;;;;;;;;;5020015;28;20387;-67
2023/09/28 02:08:13;;;;;;;;;;;;;;;;;;5017603;28;19905;-67
2023/09/28 02:10:40;;;;;;;;;;;;;;;;;;5018230;28;19948;-67
2023/09/28 02:13:06;;;;;;;;;;;;;;;;;;5017340;28;19939;-67
2023/09/28 02:15:32;;;;;;;;;;;;;;;;;;5016918;28;19946;-67
2023/09/28 02:17:58;;;;;;;;;;;;;;;;;;5015297;28;19948;-68
2023/09/28 02:20:24;;;;;;;;;;;;;;;;;;5016854;28;19905;-68
2023/09/28 02:22:52;;;;;;;;;;;;;;;;;;5016518;28;20330;-67
2023/09/28 02:25:19;;;;;;;;;;;;;;;;;;5016431;28;19941;-67
2023/09/28 02:27:45;;;;;;;;;;;;;;;;;;5016419;28;19905;-68
2023/09/28 02:30:11;;;;;;;;;;;;;;;;;;5016227;28;19917;-67
2023/09/28 02:32:37;;;;;;;;;;;;;;;;;;5016439;28;20367;-68
2023/09/28 02:35:05;;;;;;;;;;;;;;;;;;5016339;28;19912;-67
2023/09/28 02:37:31;;;;;;;;;;;;;;;;;;5016597;28;19946;-67
2023/09/28 02:39:57;;;;;;;;;;;;;;;;;;5014879;28;20004;-67
2023/09/28 02:42:23;;;;;;;;;;;;;;;;;;5015016;28;19920;-67
2023/09/28 02:44:49;;;;;;;;;;;;;;;;;;5016380;28;19943;-67
2023/09/28 02:47:15;;;;;;;;;;;;;;;;;;5016671;28;20379;-67
2023/09/28 02:49:41;;;;;;;;;;;;;;;;;;5015993;28;19975;-67
2023/09/28 02:52:07;;;;;;;;;;;;;;;;;;5015596;28;20356;-67
2023/09/28 02:54:33;;;;;;;;;;;;;;;;;;5016925;28;19913;-67
2023/09/28 02:56:59;;;;;;;;;;;;;;;;;;5016814;28;20429;-67
2023/09/28 02:59:26;;;;;;;;;;;;;;;;;;5015005;28;19967;-67
2023/09/28 03:01:52;;;;;;;;;;;;;;;;;;5015958;28;19924;-65
2023/09/28 03:04:18;;;;;;;;;;;;;;;;;;5014398;28;20028;-67
2023/09/28 03:06:44;;;;;;;;;;;;;;;;;;5014457;28;19968;-67
2023/09/28 03:09:11;;;;;;;;;;;;;;;;;;5016583;28;20327;-67
2023/09/28 03:11:39;;;;;;;;;;;;;;;;;;5015612;28;20089;-67
2023/09/28 03:14:05;;;;;;;;;;;;;;;;;;5015594;28;19935;-67
2023/09/28 03:16:32;;;;;;;;;;;;;;;;;;5014339;28;20083;-68
2023/09/28 03:18:58;;;;;;;;;;;;;;;;;;5015601;28;19937;-67
2023/09/28 03:21:24;;;;;;;;;;;;;;;;;;5015806;28;19948;-67
2023/09/28 03:23:49;;;;;;;;;;;;;;;;;;5015760;28;19969;-67
2023/09/28 03:26:15;;;;;;;;;;;;;;;;;;5015415;28;20369;-68
2023/09/28 03:28:41;;;;;;;;;;;;;;;;;;5015717;28;19991;-67
2023/09/28 03:31:07;;;;;;;;;;;;;;;;;;5014128;28;19988;-67
2023/09/28 03:33:33;;;;;;;;;;;;;;;;;;5014080;28;20317;-67
2023/09/28 03:35:59;;;;;;;;;;;;;;;;;;5014429;28;19943;-67
2023/09/28 03:38:25;;;;;;;;;;;;;;;;;;5015872;28;20327;-67
2023/09/28 03:40:51;;;;;;;7.17;5.37;;;;;;;;;;5015353;28;19995;-67
2023/09/28 03:43:17;;;;;;;6.37;5.10;;;;;;;;;;5013884;28;20676;-67
2023/09/28 03:45:43;;;;;;;;;;;;;;;;;;5015383;28;20574;-67
2023/09/28 03:48:09;;;;;;;;;;;;;;;;;;5013823;28;20040;-67
2023/09/28 03:50:35;;;;;;;;;;;;;;;;;;5015240;28;19953;-67
2023/09/28 03:53:01;;;;;;;;;;;;;;;;;;5013732;28;20399;-67
2023/09/28 03:55:27;;;;;;;;;;;;;;;;;;5014948;28;19927;-66
2023/09/28 03:57:53;;;;;;;;;;;;;;;;;;5014853;28;19945;-67
2023/09/28 04:00:19;;;;;;;;;;;;;;;;;;5013380;28;19945;-67
2023/09/28 04:02:47;;;;;;;8.70;5.73;;;;;;;;;;5014210;28;20325;-68
2023/09/28 04:05:13;;;;;;;7.40;6.10;;;;;;;;;;5013883;28;20197;-67
2023/09/28 04:07:40;;;;;;;6.73;6.03;;;;;;;;;;5014630;28;20184;-67
2023/09/28 04:10:06;;;;;;;9.83;6.03;;;;;;;;;;5013995;28;20203;-67
2023/09/28 04:12:33;;;;;;;6.97;5.70;;;;;;;;;;5012715;28;20172;-67
2023/09/28 04:14:59;;;;;;;9.03;6.40;;;;;;;;;;5014321;28;20198;-67
2023/09/28 04:17:25;;;;;;;7.00;5.70;;;;;;;;;;5012760;28;20180;-67
2023/09/28 04:19:52;;;;;;;8.67;6.10;;;;;;;;;;5013900;28;20808;-67
2023/09/28 04:22:18;;;;;;;9.17;6.57;;;;;;;;;;5013924;28;20179;-67
2023/09/28 04:24:44;;;;;;;8.87;6.47;;;;;;;;;;5014175;28;20215;-67
2023/09/28 04:27:10;;;;;;;6.87;6.00;;;;;;;;;;5014060;28;20184;-67
2023/09/28 04:29:36;;;;;;;11.77;6.77;;;;;;;;;;5012504;28;20318;-67
2023/09/28 04:32:02;;;;;;;7.60;6.80;;;;;;;;;;5014263;28;20207;-67
2023/09/28 04:34:29;;;;;;;11.93;6.93;;;;;;;;;;5012844;28;20211;-67
2023/09/28 04:36:55;;;;;;;10.83;6.60;;;;;;;;;;5012778;28;20183;-66
2023/09/28 04:39:24;;;;;;;11.87;6.60;;;;;;;;;;5014599;28;20199;-67
2023/09/28 04:41:54;;;;;;;12.37;6.70;;;;;;;;;;5014464;28;20179;-67
2023/09/28 04:44:20;;;;;;;7.57;6.40;;;;;;;;;;5014594;28;20182;-67
2023/09/28 04:46:48;;;;;;;9.13;6.40;;;;;;;;;;5014724;28;20230;-67
2023/09/28 04:49:14;;;;;;;10.73;7.00;;;;;;;;;;5018021;28;20241;-67
2023/09/28 04:51:40;;;;;;;10.33;7.30;;;;;;;;;;5019654;28;20203;-67
2023/09/28 04:54:06;;;;;;;11.27;7.53;;;;;;;;;;5017901;28;20175;-67
2023/09/28 04:56:32;;;;;;;9.50;7.03;;;;;;;;;;5018168;28;20190;-67
2023/09/28 04:58:59;;;;;;;7.43;6.70;;;;;;;;;;5019608;28;20172;-66
2023/09/28 05:01:25;;;;;;;11.00;7.33;;;;;;;;;;5020487;28;20198;-67
2023/09/28 05:03:53;;;;;;;9.87;7.27;;;;;;;;;;5018979;28;20179;-67
2023/09/28 05:06:19;;;;;;;13.73;7.47;;;;;;;;;;5018478;28;20238;-67
2023/09/28 05:08:44;;;;;;;11.97;8.00;;;;;;;;;;5021100;28;20247;-67
2023/09/28 05:11:10;;;;;;;12.40;6.87;;;;;;;;;;5038864;23;20289;-68
2023/09/28 05:13:37;;;;;;;8.17;7.37;;;;;;;;;;5014559;28;20172;-68
2023/09/28 05:16:03;;;;;;;12.73;7.87;;;;;;;;;;5012578;28;20187;-68
2023/09/28 05:18:29;;;;;;;12.70;7.73;;;;;;;;;;5014173;28;20180;-68
2023/09/28 05:20:55;;;;;;;11.63;8.30;;;;;;;;;;5013086;28;20203;-67
2023/09/28 05:23:21;;;;;;;7.90;7.10;;;;;;;;;;5012868;28;20199;-68
2023/09/28 05:25:48;;;;;;;11.20;6.80;;;;;;;;;;5013023;28;20598;-68
2023/09/28 05:28:14;;;;;;;12.17;7.27;;;;;;;;;;5013710;28;20180;-69
2023/09/28 05:30:40;;;;;;;8.80;6.93;;;;;;;;;;5012276;28;20219;-68
2023/09/28 05:33:06;;;;;;;9.97;6.70;;;;;;;;;;5012206;28;20176;-68
2023/09/28 05:35:32;;;;;;;9.40;7.13;;;;;;;;;;5013676;28;20278;-68
2023/09/28 05:37:58;;;;;;;11.37;7.67;;;;;;;;;;5014231;28;20646;-68
2023/09/28 05:40:25;;;;;;;12.23;7.17;;;;;;;;;;5012582;28;20204;-67
2023/09/28 05:42:51;;;;;;;14.63;7.20;;;;;;;;;;5012644;28;20191;-68
2023/09/28 05:45:17;;;;;;;16.40;6.83;;;;;;;;;;5013296;28;20183;-68
2023/09/28 05:47:43;;;;;;;11.70;7.20;;;;;;;;;;5013590;28;20180;-70
2023/09/28 05:50:09;;;;;;;21.17;7.73;;;;;;;;;;5013739;28;20237;-67
2023/09/28 05:52:35;;;;;;;15.37;7.37;;;;;;;;;;5012430;28;20242;-68
2023/09/28 05:55:01;;;;;;;23.00;7.83;;;;;;;;;;5032150;28;20168;-68
2023/09/28 05:57:27;;;;;;;10.87;7.13;;;;;;;;;;5032706;28;20210;-68
2023/09/28 05:59:52;;;;;;;15.57;8.03;;;;;;;;;;5033249;28;20190;-69
2023/09/28 06:02:19;;;;;;;13.20;7.70;;;;;;;;;;5034502;28;20208;-69
2023/09/28 06:04:45;;;;;;;16.37;7.30;;;;;;;;;;5034122;28;20212;-68
2023/09/28 06:07:11;;;;;;;11.30;6.60;;;;;;;;;;5032540;28;20207;-68
2023/09/28 06:09:38;;;;;;;11.53;7.17;;;;;;;;;;5015975;28;20237;-68
2023/09/28 06:12:04;;;;;;;10.63;6.90;;;;;;;;;;5012399;28;20693;-68
2023/09/28 06:14:30;;;;;;;12.10;6.83;;;;;;;;;;5016088;28;20187;-68
2023/09/28 06:16:56;;;;;;;8.00;6.33;;;;;;;;;;5020757;28;20259;-68
2023/09/28 06:19:22;;;;;;;13.93;6.83;;;;;;;;;;5012187;28;20284;-68
2023/09/28 06:21:48;;;;;;;8.60;7.03;;;;;;;;;;5013864;28;20211;-68
2023/09/28 06:24:14;;;;;;;10.70;6.53;;;;;;;;;;5018658;28;20184;-67
2023/09/28 06:26:40;;;;;;;9.90;6.67;;;;;;;;;;5022070;28;20183;-68
2023/09/28 06:29:06;;;;;;;7.60;6.33;;;;;;;;;;5023684;28;20188;-68
2023/09/28 06:31:33;;;;;;;7.97;6.43;;;;;;;;;;5023162;28;20227;-68
2023/09/28 06:33:59;;;;;;;7.73;5.80;;;;;;;;;;5020866;28;20572;-68
2023/09/28 06:36:25;;;;;;;10.90;6.50;;;;;;;;;;5015270;28;20179;-68
2023/09/28 06:38:51;;;;;;;7.43;5.90;;;;;;;;;;5016764;28;20172;-68
2023/09/28 06:41:17;;;;;;;7.40;6.10;;;;;;;;;;5016282;28;20208;-68
2023/09/28 06:43:44;;;;;;;8.07;5.80;;;;;;;;;;5014767;28;20191;-68
2023/09/28 06:46:10;;;;;;;8.70;5.73;;;;;;;;;;5015963;28;20266;-68
2023/09/28 06:48:36;;;;;;;8.03;6.03;;;;;;;;;;5016211;28;20215;-68
2023/09/28 06:51:02;;;;;;;9.10;6.20;;;;;;;;;;5015886;28;20220;-69
2023/09/28 06:53:28;;;;;;;6.50;5.43;;;;;;;;;;5014964;28;20230;-68
2023/09/28 06:55:55;;;;;;;6.87;5.60;;;;;;;;;;5016131;28;20202;-67
2023/09/28 06:58:21;;;;;;;7.20;5.73;;;;;;;;;;5016546;28;20717;-68
2023/09/28 07:00:47;;;;;;;8.33;6.40;;;;;;;;;;5016230;28;20287;-67
2023/09/28 07:03:13;;;;;;;8.83;6.40;;;;;;;;;;5014974;28;20388;-68
2023/09/28 07:05:40;;;;;;;8.53;6.87;;;;;;;;;;5016737;28;20681;-68
2023/09/28 07:08:06;;;;;;;10.77;6.07;;;;;;;;;;5016300;28;20203;-68
2023/09/28 07:10:36;;;;;;;13.07;6.17;;;;;;;;;;5016638;28;20220;-69
2023/09/28 07:13:05;;;;;;;9.23;6.40;;;;;;;;;;5015016;28;20189;-68
2023/09/28 07:15:32;;;;;;;7.90;6.20;;;;;;;;;;5014685;28;20184;-68
2023/09/28 07:17:58;;;;;;;8.60;5.90;;;;;;;;;;5015678;28;20176;-68
2023/09/28 07:20:26;;;;;;;8.50;6.27;;;;;;;;;;5014689;28;20584;-67
2023/09/28 07:22:52;;;;;;;8.50;6.50;;;;;;;;;;5016383;28;20262;-68
2023/09/28 07:25:19;;;;;;;18.37;7.00;;;;;;;;;;5015680;28;20529;-68
2023/09/28 07:27:45;;;;;;;7.20;5.73;;;;;;;;;;5016020;28;20187;-67
2023/09/28 07:30:11;;;;;;;11.47;5.93;;;;;;;;;;5014625;28;20215;-68
2023/09/28 07:32:38;;;;;;;7.90;6.40;;;;;;;;;;5015687;28;20230;-68
2023/09/28 07:35:04;;;;;;;8.77;6.30;;;;;;;;;;5015505;28;20180;-68
2023/09/28 07:37:30;;;;;;;8.63;6.27;;;;;;;;;;5015303;28;20593;-68
2023/09/28 07:39:57;;;;;;;8.63;6.30;;;;;;;;;;5014977;28;20199;-67
2023/09/28 07:42:23;;;;;;;7.13;5.93;;;;;;;;;;5015532;28;20206;-68
2023/09/28 07:44:51;;;;;;;13.77;6.43;;;;;;;;;;5015783;28;20180;-70
2023/09/28 07:47:18;;;;;;;9.57;6.73;;;;;;;;;;5013434;28;20179;-69
2023/09/28 07:49:45;;;;;;;13.40;5.93;;;;;;;;;;5013313;28;20657;-69
2023/09/28 07:52:11;;;;;;;12.33;5.97;;;;;;;;;;5014900;28;20200;-69
2023/09/28 07:54:37;;;;;;;14.03;6.17;;;;;;;;;;5014439;28;20182;-69
2023/09/28 07:57:05;;;;;;;7.67;5.50;;;;;;;;;;5013709;28;20210;-68
2023/09/28 07:59:32;;;;;;;10.77;5.40;;;;;;;;;;5014759;28;20180;-69
2023/09/28 08:01:58;;;;;;;9.87;5.50;;;;;;;;;;5014450;28;20196;-70
2023/09/28 08:04:24;;;;;;;10.40;5.93;;;;;;;;;;5013114;28;20192;-69
2023/09/28 08:06:50;;;;;;;10.63;5.80;;;;;;;;;;5014451;28;20187;-68
2023/09/28 08:09:16;;;;;;;9.23;5.63;;;;;;;;;;5014093;28;20229;-69
2023/09/28 08:11:42;;;;;;;11.30;5.47;;;;;;;;;;5013839;28;20228;-69
2023/09/28 08:14:15;;;;;;;8.60;5.33;;;;;;;;;;5014310;28;20183;-69
2023/09/28 08:16:41;;;;;;;14.60;6.10;;;;;;;;;;5014209;28;20160;-69
2023/09/28 08:19:07;;;;;;;8.20;5.70;;;;;;;;;;5014267;28;20298;-69
2023/09/28 08:21:34;;;;;;;13.97;6.07;;;;;;;;;;5013309;28;20677;-68
2023/09/28 08:23:59;;;;;;;11.37;5.63;;;;;;;;;;5013449;28;20645;-68
2023/09/28 08:26:25;;;;;;;9.57;5.33;;;;;;;;;;5014064;28;20346;-68
2023/09/28 08:28:52;;;;;;;9.30;5.73;;;;;;;;;;5014059;28;20230;-69
2023/09/28 08:31:19;;;;;;;8.67;5.23;;;;;;;;;;5012728;28;20266;-69
2023/09/28 08:33:44;;;;;;;8.87;5.67;;;;;;;;;;5014218;28;20187;-69
2023/09/28 08:36:13;;;;;;;8.23;5.23;;;;;;;;;;5012510;28;20175;-68
2023/09/28 08:38:39;;;;;;;9.07;5.27;;;;;;;;;;5013512;28;20267;-68
2023/09/28 08:41:06;;;;;;;11.90;4.50;;;;;;;;;;5013625;28;20273;-68
2023/09/28 08:43:39;;;;;;;9.90;5.20;;;;;;;;;;5011942;28;20642;-69
2023/09/28 08:46:07;;;;;;;10.20;5.43;;;;;;;;;;5012765;28;20627;-68
2023/09/28 08:48:33;;;;;;;10.47;4.30;;;;;;;;;;5012472;28;20274;-68
2023/09/28 08:51:08;;;;;;;12.03;4.50;;;;;;;;;;5012371;28;20219;-68
2023/09/28 08:53:36;;;;;;;9.67;4.70;;;;;;;;;;5013809;28;20162;-69
2023/09/28 08:56:04;;;;;;;10.80;4.53;;;;;;;;;;5013076;28;20180;-68
2023/09/28 08:58:30;;;;;;;12.30;4.43;;;;;;;;;;5013372;28;20641;-69
2023/09/28 09:00:57;;;;;;;12.30;5.17;;;;;;;;;;5013105;28;20662;-70
2023/09/28 09:03:24;;;;;;;7.53;4.43;;;;;;;;;;5011723;28;20275;-69
2023/09/28 09:05:51;;;;;;;10.63;4.43;;;;;;;;;;5013129;28;20181;-70
2023/09/28 09:08:17;;;;;;;10.97;4.20;;;;;;;;;;5013177;28;20556;-69
2023/09/28 09:10:43;;;;;;;14.33;4.93;;;;;;;;;;5012787;28;20239;-70
2023/09/28 09:13:16;;;;;;;12.23;4.20;;;;;;;;;;5011645;28;20176;-68
2023/09/28 09:15:43;;;;;;;11.90;4.07;;;;;;;;;;5011711;28;20650;-69
2023/09/28 09:18:16;;;;;;;10.77;3.50;;;;;;;;;;5011683;28;20186;-69
2023/09/28 09:20:42;;;;;;;11.37;4.37;;;;;;;;;;5011783;28;20285;-68
2023/09/28 09:23:11;;;;;;;11.33;4.20;;;;;;;;;;5013134;28;20215;-68
2023/09/28 09:25:41;;;;;;;7.03;3.60;;;;;;;;;;5012925;28;20180;-70
2023/09/28 09:28:07;;;;;;;8.17;4.03;;;;;;;;;;5012863;28;20184;-68
2023/09/28 09:30:36;;;;;;;10.40;4.33;;;;;;;;;;5011364;28;20274;-69
2023/09/28 09:33:04;;;;;;;10.27;3.87;;;;;;;;;;5012912;28;20639;-69
2023/09/28 09:35:31;;;;;;;11.53;4.03;;;;;;;;;;5012285;28;20184;-68
2023/09/28 09:37:57;;;;;;;9.83;4.20;;;;;;;;;;5012759;28;20180;-71
2023/09/28 09:40:23;;;;;;;11.80;4.30;;;;;;;;;;5013172;28;20613;-71
2023/09/28 09:42:49;;;;;;;9.73;3.43;;;;;;;;;;5014468;28;20176;-69
2023/09/28 09:45:15;;;;;;;14.63;4.50;;;;;;;;;;5013371;28;20234;-69
2023/09/28 09:47:48;;;;;;;9.80;4.33;;;;;;;;;;5012759;28;20210;-70
2023/09/28 09:50:16;;;;;;;13.17;4.50;;;;;;;;;;5012140;28;20218;-70
2023/09/28 09:52:43;;;;;;;11.63;4.20;;;;;;;;;;5011820;28;20176;-69
2023/09/28 09:55:09;;;;;;;10.10;3.70;;;;;;;;;;5013366;28;20218;-69
2023/09/28 09:57:42;;;;;;;16.67;4.27;;;;;;;;;;5012132;28;20180;-69
2023/09/28 10:00:08;;;;;;;13.17;4.33;;;;;;;;;;5013186;28;20199;-69
2023/09/28 10:02:39;;;;;;;10.37;4.03;;;;;;;;;;5015592;28;20642;-66
2023/09/28 10:05:12;;;;;;;8.60;3.63;;;;;;;;;;5017264;28;20164;-69
2023/09/28 10:07:38;;;;;;;10.57;3.73;;;;;;;;;;5017315;28;20194;-67
2023/09/28 10:10:06;;;;;;;9.63;3.80;;;;;;;;;;5016779;28;20215;-68
2023/09/28 10:12:32;;;;;;;11.03;4.30;;;;;;;;;;5017343;28;20647;-68
2023/09/28 10:15:01;;;;;;;11.17;4.30;;;;;;;;;;5017253;28;20183;-68
2023/09/28 10:17:28;;;;;;;11.33;4.40;;;;;;;;;;5015877;28;20172;-68
2023/09/28 10:19:57;;;;;;;7.77;3.63;;;;;;;;;;5016987;28;20200;-68
2023/09/28 10:22:23;;;;;;;12.30;4.60;;;;;;;;;;5016298;28;20179;-68
2023/09/28 10:24:49;;;;;;;7.67;3.87;;;;;;;;;;5015922;28;20182;-68
2023/09/28 10:27:15;;;;;;;9.10;3.90;;;;;;;;;;5015751;28;20172;-69
2023/09/28 10:29:41;;;;;;;11.30;4.40;;;;;;;;;;5014383;28;20184;-68
2023/09/28 10:32:13;;;;;;;8.73;4.27;;;;;;;;;;5014482;28;20210;-68
2023/09/28 10:34:43;;;;;;;12.07;4.60;;;;;;;;;;5015816;28;20160;-68
2023/09/28 10:37:15;;;;;;;7.17;3.67;;;;;;;;;;5015642;28;20176;-68
2023/09/28 10:39:48;;;;;;;8.93;4.40;;;;;;;;;;5015863;28;20157;-68
2023/09/28 10:42:17;;;;;;;7.73;4.03;;;;;;;;;;5014213;28;20673;-68
2023/09/28 10:44:50;;;;;;;7.47;4.10;;;;;;;;;;5015749;28;20226;-68
2023/09/28 10:47:16;;;;;;;7.80;4.00;;;;;;;;;;5014123;28;20187;-69
2023/09/28 10:49:43;;;;;;;11.57;4.17;;;;;;;;;;5015261;28;20275;-69
2023/09/28 10:52:09;;;;;;;9.73;4.50;;;;;;;;;;5013886;28;20180;-68
2023/09/28 10:54:36;;;;;;;12.37;4.53;;;;;;;;;;5014645;28;20322;-68
2023/09/28 10:57:04;;;;;;;9.83;4.20;;;;;;;;;;5013859;28;20226;-68
2023/09/28 10:59:30;;;;;;;15.70;4.80;;;;;;;;;;5015616;28;20173;-69
2023/09/28 11:01:56;;;;;;;12.77;4.30;;;;;;;;;;5015179;28;20703;-69
2023/09/28 11:04:22;;;;;;;7.00;4.30;;;;;;;;;;5015229;28;20199;-69
2023/09/28 11:06:49;;;;;;;10.87;4.20;;;;;;;;;;5014025;28;20179;-69
2023/09/28 11:09:19;;;;;;;10.90;4.20;;;;;;;;;;5015693;28;20232;-68
2023/09/28 11:11:45;;;;;;;13.63;4.20;;;;;;;;;;5039129;23;20235;-66
2023/09/28 11:14:11;;;;;;;15.00;4.40;;;;;;;;;;5012674;28;20516;-67
2023/09/28 11:16:42;;;;;;;9.13;4.03;;;;;;;;;;5015120;28;20716;-67
2023/09/28 11:19:11;;;;;;;13.37;4.27;;;;;;;;;;5015022;28;20222;-67
2023/09/28 11:21:38;;;;;;;12.03;4.30;;;;;;;;;;5014652;28;20278;-68
2023/09/28 11:24:04;;;;;;;15.03;4.20;;;;;;;;;;5015102;28;20188;-66
2023/09/28 11:26:31;;;;;;;12.53;4.17;;;;;;;;;;5013482;28;20179;-67
2023/09/28 11:28:58;;;;;;;9.77;3.57;;;;;;;;;;5014878;28;20180;-67
2023/09/28 11:31:25;;;;;;;10.37;4.03;;;;;;;;;;5015103;28;20568;-68
2023/09/28 11:33:52;;;;;;;9.70;4.23;;;;;;;;;;5015140;28;20168;-67
2023/09/28 11:36:20;;;;;;;10.03;4.00;;;;;;;;;;5013863;28;20203;-68
2023/09/28 11:38:46;;;;;;;8.80;4.60;;;;;;;;;;5014927;28;20230;-67
2023/09/28 11:41:13;;;;;;;11.67;4.03;;;;;;;;;;5013205;28;20227;-67
2023/09/28 11:43:51;;;;;;;10.87;4.03;;;;;;;;;;5013247;28;20251;-67
2023/09/28 11:46:25;;;;;;;10.00;4.00;;;;;;;;;;5014366;28;20180;-68
2023/09/28 11:49:06;;;;;;;9.07;3.83;;;;;;;;;;5014405;28;20191;-68
2023/09/28 11:51:35;;;;;;;10.53;4.20;;;;;;;;;;5012994;28;20282;-68
2023/09/28 11:54:08;;;;;;;10.43;4.23;;;;;;;;;;5014480;28;20176;-68
2023/09/28 11:56:34;;;;;;;9.73;4.13;;;;;;;;;;5014273;28;20180;-68
2023/09/28 11:59:00;;;;;;;8.90;4.03;;;;;;;;;;5014103;28;20184;-67
2023/09/28 12:01:26;;;;;;;12.40;4.33;;;;;;;;;;5014055;28;20250;-68
2023/09/28 12:03:53;;;;;;;9.60;4.07;;;;;;;;;;5014135;28;20176;-67
2023/09/28 12:06:19;;;;;;;12.60;3.50;;;;;;;;;;5013011;28;20195;-68
2023/09/28 12:08:45;;;;;;;10.70;4.03;;;;;;;;;;5012610;28;20654;-67
2023/09/28 12:11:12;;;;;;;9.47;3.63;;;;;;;;;;5013824;28;20233;-68
2023/09/28 12:13:38;;;;;;;7.57;3.00;;;;;;;;;;5014326;28;20180;-67
2023/09/28 12:16:05;;;;;;;11.37;3.27;;;;;;;;;;5012562;28;20180;-67
2023/09/28 12:18:31;;;;;;;9.03;3.57;;;;;;;;;;5012467;28;20351;-67
2023/09/28 12:20:57;;;;;;;8.67;3.63;;;;;;;;;;5013788;28;20186;-67
2023/09/28 12:23:24;;;;;;;5.50;2.90;;;;;;;;;;5013688;28;20575;-67
2023/09/28 12:25:50;;;;;;;7.03;3.13;;;;;;;;;;5013647;28;20187;-67
2023/09/28 12:28:16;;;;;;;12.83;4.00;;;;;;;;;;5014099;28;20554;-67
2023/09/28 12:30:42;;;;;;;9.37;3.37;;;;;;;;;;5012169;28;20207;-67
2023/09/28 12:33:08;;;;;;;9.07;3.80;;;;;;;;;;5012178;28;20233;-67
2023/09/28 12:35:35;;;;;;;5.50;3.43;;;;;;;;;;5014354;28;20184;-67
2023/09/28 12:38:04;;;;;;;9.87;3.83;;;;;;;;;;5013650;28;20226;-67
2023/09/28 12:40:32;;;;;;;12.90;3.50;;;;;;;;;;5013648;28;20271;-68
2023/09/28 12:42:58;;;;;;;9.20;3.40;;;;;;;;;;5012038;28;20555;-67
2023/09/28 12:45:24;;;;;;;14.17;4.17;;;;;;;;;;5013788;28;20706;-67
2023/09/28 12:47:50;;;;;;;12.23;4.00;;;;;;;;;;5011977;28;20605;-67
2023/09/28 12:50:17;;;;;;;10.63;3.60;;;;;;;;;;5011862;28;20700;-66
2023/09/28 12:52:42;;;;;;;9.63;3.47;;;;;;;;;;5013173;28;20227;-67
2023/09/28 12:55:09;;;;;;;10.63;3.90;;;;;;;;;;5013093;28;20241;-67
2023/09/28 12:57:35;;;;;;;8.37;3.33;;;;;;;;;;5011780;28;20619;-67
2023/09/28 13:00:01;;;;;;;9.17;3.87;;;;;;;;;;5013045;28;20667;-67
2023/09/28 13:02:27;;;;;;;8.37;3.83;;;;;;;;;;5011487;28;20200;-68
2023/09/28 13:04:53;;;;;;;7.83;3.83;;;;;;;;;;5011693;28;20180;-67
2023/09/28 13:07:19;;;;;;;11.27;3.47;;;;;;;;;;5013001;28;20646;-67
2023/09/28 13:09:46;;;;;;;7.23;3.57;;;;;;;;;;5012984;28;20208;-67
2023/09/28 13:12:12;;;;;;;12.80;4.20;;;;;;;;;;5012823;28;20667;-67
2023/09/28 13:14:38;;;;;;;6.90;3.47;;;;;;;;;;5013093;28;20180;-67
2023/09/28 13:17:06;;;;;;;9.07;3.20;;;;;;;;;;5011711;28;20274;-67
2023/09/28 13:19:32;;;;;;;9.67;3.43;;;;;;;;;;5012796;28;20179;-67
2023/09/28 13:21:58;;;;;;;16.10;4.80;;;;;;;;;;5012697;28;20274;-67
2023/09/28 13:24:26;;;;;;;9.40;3.90;;;;;;;;;;5011331;28;20603;-67
2023/09/28 13:26:53;;;;;;;7.13;3.67;;;;;;;;;;5013032;28;20193;-66
2023/09/28 13:29:23;;;;;;;12.03;3.73;;;;;;;;;;5012768;28;20172;-67
2023/09/28 13:31:50;;;;;;;7.07;3.20;;;;;;;;;;5011383;28;20723;-66
2023/09/28 13:34:16;;;;;;;8.87;4.00;;;;;;;;;;5011453;28;20220;-67
2023/09/28 13:36:42;;;;;;;10.10;3.60;;;;;;;;;;5012232;28;20295;-66
2023/09/28 13:39:26;;;;;;;7.67;3.33;;;;;;;;;;5016578;28;20552;-67
2023/09/28 13:41:53;;;;;;;10.47;3.47;;;;;;;;;;5016873;28;20195;-67
2023/09/28 13:44:20;;;;;;;11.20;4.40;;;;;;;;;;5016696;28;20184;-67
2023/09/28 13:46:46;;;;;;;6.67;3.13;;;;;;;;;;5017108;28;20207;-67
2023/09/28 13:49:12;;;;;;;10.07;3.60;;;;;;;;;;5015325;28;20600;-67
2023/09/28 13:51:38;;;;;;;11.53;4.07;;;;;;;;;;5015049;28;20567;-67
2023/09/28 13:54:04;;;;;;;7.80;3.50;;;;;;;;;;5016520;28;20559;-66
2023/09/28 13:56:35;;;;;;;9.00;3.70;;;;;;;;;;5016515;28;20187;-67
2023/09/28 13:59:05;;;;;;;8.30;3.80;;;;;;;;;;5016471;28;20160;-67
2023/09/28 14:01:31;;;;;;;9.17;3.80;;;;;;;;;;5014955;28;20200;-67
2023/09/28 14:03:56;;;;;;;10.73;4.30;;;;;;;;;;5016377;28;20179;-67
2023/09/28 14:06:22;;;;;;;16.60;4.50;;;;;;;;;;5014972;28;20199;-66
2023/09/28 14:08:48;;;;;;;10.57;4.03;;;;;;;;;;5016313;28;20175;-67
2023/09/28 14:11:20;;;;;;;14.93;4.33;;;;;;;;;;5014729;28;20219;-67
2023/09/28 14:13:46;;;;;;;12.53;4.30;;;;;;;;;;5014855;28;20675;-67
2023/09/28 14:16:12;;;;;;;10.87;4.47;;;;;;;;;;5016095;28;20176;-67
2023/09/28 14:18:40;;;;;;;9.93;3.70;;;;;;;;;;5014841;28;20203;-67
2023/09/28 14:21:05;;;;;;;12.63;3.90;;;;;;;;;;5014742;28;20208;-67
2023/09/28 14:23:31;;;;;;;12.07;4.27;;;;;;;;;;5015422;28;20192;-67
2023/09/28 14:25:58;;;;;;;11.23;3.90;;;;;;;;;;5016272;28;20176;-67
2023/09/28 14:28:24;;;;;;;7.47;3.70;;;;;;;;;;5014570;28;20203;-67
2023/09/28 14:30:49;;;;;;;13.63;4.50;;;;;;;;;;5015472;28;20672;-66
2023/09/28 14:33:17;;;;;;;10.77;4.60;;;;;;;;;;5014171;28;20175;-67
2023/09/28 14:35:43;;;;;;;10.20;4.30;;;;;;;;;;5015843;28;20168;-67
2023/09/28 14:38:10;;;;;;;11.47;4.00;;;;;;;;;;5015473;28;20557;-68
2023/09/28 14:40:36;;;;;;;9.67;4.00;;;;;;;;;;5015714;28;20550;-67
2023/09/28 14:43:03;;;;;;;9.53;3.80;;;;;;;;;;5015467;28;20685;-67
2023/09/28 14:45:30;;;;;;;8.80;3.87;;;;;;;;;;5014149;28;20192;-67
2023/09/28 14:47:56;;;;;;;10.37;4.00;;;;;;;;;;5013968;28;20189;-68
2023/09/28 14:50:22;;;;;;;16.27;4.60;;;;;;;;;;5013992;28;20294;-67
2023/09/28 14:52:48;;;;;;;14.27;4.37;;;;;;;;;;5013971;28;20203;-67
2023/09/28 14:55:14;;;;;;;11.40;4.10;;;;;;;;;;5015322;28;20184;-68
2023/09/28 14:57:40;;;;;;;12.83;4.07;;;;;;;;;;5014144;28;20176;-67
2023/09/28 15:00:11;;;;;;;8.83;4.03;;;;;;;;;;5014189;28;20175;-67
2023/09/28 15:02:38;;;;;;;12.57;4.40;;;;;;;;;;5015971;28;20200;-66
2023/09/28 15:05:05;;;;;;;10.50;4.27;;;;;;;;;;5016237;28;20183;-67